Time;durP1;ratioP1;P1;durP2;ratioP2;P2;SDS_P1;SDS_P2;PMS_P1;PMS_P2;Temp;Humidity;BMP_temperature;BMP_pressure;BME280_temperature;BME280_humidity;BME280_pressure;Samples;Min_cycle;Max_cycle;Signal;HPM_P1;HPM_P2
2021/03/30 00:01:54;;;;;;;18.92;9.07;;;;;;;;;;5071305;28;20051;-64
2021/03/30 00:04:39;;;;;;;16.23;8.70;;;;;;;;;;5071749;28;20037;-64
2021/03/30 00:07:24;;;;;;;15.00;9.07;;;;;;;;;;5071897;28;20185;-64
2021/03/30 00:10:11;;;;;;;18.10;9.32;;;;;;;;;;5071901;28;20052;-64
2021/03/30 00:12:57;;;;;;;17.98;9.00;;;;;;;;;;5059466;28;20108;-64
2021/03/30 00:15:42;;;;;;;17.42;10.18;;;;;;;;;;5052646;28;20437;-64
2021/03/30 00:18:27;;;;;;;15.73;9.45;;;;;;;;;;5051684;28;20059;-64
2021/03/30 00:21:13;;;;;;;19.63;9.80;;;;;;;;;;5051742;28;20041;-64
2021/03/30 00:23:58;;;;;;;18.23;9.10;;;;;;;;;;5069471;28;20044;-64
2021/03/30 00:26:44;;;;;;;14.88;9.80;;;;;;;;;;5071677;28;20117;-64
2021/03/30 00:29:29;;;;;;;15.50;10.13;;;;;;;;;;5071661;28;20571;-64
2021/03/30 00:32:14;;;;;;;15.85;9.85;;;;;;;;;;5070899;28;20106;-64
2021/03/30 00:35:00;;;;;;;17.58;11.63;;;;;;;;;;5051399;28;20049;-64
2021/03/30 00:37:45;;;;;;;20.67;10.93;;;;;;;;;;5051457;28;20037;-64
2021/03/30 00:40:31;;;;;;;15.48;10.13;;;;;;;;;;5051685;28;20048;-64
2021/03/30 00:43:16;;;;;;;20.35;11.90;;;;;;;;;;5057430;28;20051;-64
2021/03/30 00:46:01;;;;;;;18.23;11.77;;;;;;;;;;5072892;28;20055;-64
2021/03/30 00:48:47;;;;;;;22.73;11.65;;;;;;;;;;5075462;28;20047;-64
2021/03/30 00:51:33;;;;;;;19.77;11.52;;;;;;;;;;5075335;28;20068;-64
2021/03/30 00:54:38;;;;;;;17.63;11.07;;;;;;;;;;5060914;28;20052;-64
2021/03/30 00:57:28;;;;;;;19.23;11.48;;;;;;;;;;5075040;28;20131;-64
2021/03/30 01:00:13;;;;;;;17.52;9.82;;;;;;;;;;5075078;28;20049;-64
2021/03/30 01:02:59;;;;;;;18.90;10.98;;;;;;;;;;5089615;22;20040;-65
2021/03/30 01:05:44;;;;;;;18.58;11.18;;;;;;;;;;5054849;28;20052;-64
2021/03/30 01:08:38;;;;;;;14.38;10.63;;;;;;;;;;5054934;28;20052;-65
2021/03/30 01:11:29;;;;;;;15.95;10.80;;;;;;;;;;5054925;28;20045;-64
2021/03/30 01:14:17;;;;;;;16.00;10.40;;;;;;;;;;5062555;28;20032;-65
2021/03/30 01:17:03;;;;;;;14.40;9.80;;;;;;;;;;5064158;28;20072;-64
2021/03/30 01:19:58;;;;;;;16.02;10.80;;;;;;;;;;5059957;28;20487;-64
2021/03/30 01:23:02;;;;;;;14.00;9.07;;;;;;;;;;5074686;28;20048;-64
2021/03/30 01:25:50;;;;;;;14.73;9.50;;;;;;;;;;5074436;28;20051;-64
2021/03/30 01:28:43;;;;;;;14.60;9.38;;;;;;;;;;5059797;28;20179;-64
2021/03/30 01:31:30;;;;;;;18.00;11.13;;;;;;;;;;5074554;28;20048;-64
2021/03/30 01:34:15;;;;;;;14.57;11.95;;;;;;;;;;5074536;28;20120;-64
2021/03/30 01:37:01;;;;;;;17.50;10.68;;;;;;;;;;5059312;28;20111;-64
2021/03/30 01:39:46;;;;;;;14.30;11.20;;;;;;;;;;5059360;28;20494;-64
2021/03/30 01:42:31;;;;;;;20.73;10.40;;;;;;;;;;5059352;28;20691;-64
2021/03/30 01:45:17;;;;;;;18.52;11.15;;;;;;;;;;5073967;28;20048;-64
2021/03/30 01:48:03;;;;;;;13.57;10.75;;;;;;;;;;5074234;28;20557;-64
2021/03/30 01:50:48;;;;;;;18.13;9.95;;;;;;;;;;5059285;28;20558;-64
2021/03/30 01:53:33;;;;;;;16.80;11.50;;;;;;;;;;5074360;28;20063;-64
2021/03/30 01:56:18;;;;;;;14.02;10.02;;;;;;;;;;5058121;28;20049;-64
2021/03/30 01:59:04;;;;;;;14.52;9.98;;;;;;;;;;5059113;28;20040;-64
2021/03/30 02:01:49;;;;;;;13.88;10.20;;;;;;;;;;5074042;28;20491;-64
2021/03/30 02:04:35;;;;;;;19.25;10.32;;;;;;;;;;5058681;28;20048;-64
2021/03/30 02:07:20;;;;;;;15.75;10.77;;;;;;;;;;5058794;28;20047;-64
2021/03/30 02:10:09;;;;;;;15.43;9.85;;;;;;;;;;5058529;28;20095;-64
2021/03/30 02:12:56;;;;;;;14.25;10.30;;;;;;;;;;5072613;28;20070;-64
2021/03/30 02:15:41;;;;;;;19.17;9.90;;;;;;;;;;5073734;28;20045;-64
2021/03/30 02:18:27;;;;;;;14.70;9.13;;;;;;;;;;5058610;28;20048;-64
2021/03/30 02:21:12;;;;;;;16.52;10.23;;;;;;;;;;5058701;28;20127;-64
2021/03/30 02:23:57;;;;;;;13.63;10.25;;;;;;;;;;5058574;28;20049;-64
2021/03/30 02:26:44;;;;;;;17.08;11.20;;;;;;;;;;5073270;28;20044;-64
2021/03/30 02:29:34;;;;;;;14.07;10.73;;;;;;;;;;5073506;28;20049;-64
2021/03/30 02:32:19;;;;;;;19.27;11.15;;;;;;;;;;5073570;28;20451;-64
2021/03/30 02:35:05;;;;;;;16.70;10.00;;;;;;;;;;5058393;28;20102;-64
2021/03/30 02:37:51;;;;;;;17.77;10.05;;;;;;;;;;5058125;28;20117;-64
2021/03/30 02:40:36;;;;;;;13.40;9.88;;;;;;;;;;5073523;28;20040;-64
2021/03/30 02:43:21;;;;;;;12.50;10.10;;;;;;;;;;5073034;28;20526;-64
2021/03/30 02:46:06;;;;;;;12.45;10.48;;;;;;;;;;5058084;28;20044;-64
2021/03/30 02:48:52;;;;;;;16.13;10.63;;;;;;;;;;5058001;28;20490;-64
2021/03/30 02:51:37;;;;;;;16.25;10.80;;;;;;;;;;5058281;28;20044;-64
2021/03/30 02:54:23;;;;;;;18.35;11.88;;;;;;;;;;5085016;28;20048;-64
2021/03/30 02:57:08;;;;;;;17.52;13.07;;;;;;;;;;5093069;28;20048;-64
2021/03/30 02:59:56;;;;;;;17.05;13.35;;;;;;;;;;5057777;28;20037;-64
2021/03/30 03:02:44;;;;;;;17.75;12.98;;;;;;;;;;5072734;28;20127;-64
2021/03/30 03:05:29;;;;;;;20.85;12.95;;;;;;;;;;5072550;28;20040;-64
2021/03/30 03:08:15;;;;;;;18.92;12.40;;;;;;;;;;5071905;28;20072;-64
2021/03/30 03:11:00;;;;;;;16.05;11.68;;;;;;;;;;5045960;28;20136;-64
2021/03/30 03:13:46;;;;;;;17.17;12.25;;;;;;;;;;5038572;28;20056;-64
2021/03/30 03:16:31;;;;;;;15.77;12.18;;;;;;;;;;5052327;28;20044;-64
2021/03/30 03:19:16;;;;;;;17.17;12.60;;;;;;;;;;5046147;28;20040;-64
2021/03/30 03:22:03;;;;;;;27.92;16.40;;;;;;;;;;5057476;28;20144;-64
2021/03/30 03:24:49;;;;;;;16.25;12.27;;;;;;;;;;5072363;28;20052;-64
2021/03/30 03:27:35;;;;;;;18.60;12.60;;;;;;;;;;5072382;28;20052;-64
2021/03/30 03:30:20;;;;;;;18.50;11.65;;;;;;;;;;5072205;28;20036;-64
2021/03/30 03:33:09;;;;;;;19.75;12.65;;;;;;;;;;5072424;28;20651;-64
2021/03/30 03:36:08;;;;;;;18.77;12.25;;;;;;;;;;5072139;28;20048;-64
2021/03/30 03:38:53;;;;;;;18.38;12.05;;;;;;;;;;5072277;28;20040;-64
2021/03/30 03:41:39;;;;;;;21.35;12.93;;;;;;;;;;5052313;28;20041;-64
2021/03/30 03:44:30;;;;;;;20.15;12.50;;;;;;;;;;5051865;28;20053;-64
2021/03/30 03:47:15;;;;;;;19.17;13.13;;;;;;;;;;5052303;28;20053;-64
2021/03/30 03:50:02;;;;;;;21.42;12.00;;;;;;;;;;5058233;28;20047;-64
2021/03/30 03:52:49;;;;;;;19.10;13.02;;;;;;;;;;5072047;28;20045;-64
2021/03/30 03:55:34;;;;;;;21.13;13.13;;;;;;;;;;5056933;28;20045;-64
2021/03/30 03:58:22;;;;;;;18.13;12.75;;;;;;;;;;5057140;28;20048;-64
2021/03/30 04:01:07;;;;;;;18.73;12.98;;;;;;;;;;5059269;28;20040;-64
2021/03/30 04:03:54;;;;;;;17.80;12.77;;;;;;;;;;5062352;28;20045;-64
2021/03/30 04:06:40;;;;;;;20.27;13.23;;;;;;;;;;5047487;28;20045;-65
2021/03/30 04:09:26;;;;;;;26.05;14.43;;;;;;;;;;5061960;28;20052;-65
2021/03/30 04:12:11;;;;;;;22.45;15.02;;;;;;;;;;5061070;28;20064;-65
2021/03/30 04:14:57;;;;;;;21.33;14.93;;;;;;;;;;5060935;28;20048;-65
2021/03/30 04:17:42;;;;;;;24.40;15.63;;;;;;;;;;5060832;28;20049;-65
2021/03/30 04:20:27;;;;;;;23.75;16.23;;;;;;;;;;5078575;28;20063;-63
2021/03/30 04:23:13;;;;;;;19.75;14.02;;;;;;;;;;5059684;28;20048;-65
2021/03/30 04:25:58;;;;;;;20.60;12.82;;;;;;;;;;5056500;28;20491;-64
2021/03/30 04:28:44;;;;;;;20.60;12.48;;;;;;;;;;5056028;28;20057;-63
2021/03/30 04:31:30;;;;;;;23.25;12.30;;;;;;;;;;5061777;28;20556;-64
2021/03/30 04:34:15;;;;;;;17.25;12.52;;;;;;;;;;5075610;28;20395;-64
2021/03/30 04:37:01;;;;;;;21.20;13.18;;;;;;;;;;5075573;28;20048;-64
2021/03/30 04:39:46;;;;;;;18.88;13.43;;;;;;;;;;5075665;28;20045;-64
2021/03/30 04:42:32;;;;;;;21.20;15.05;;;;;;;;;;5075387;28;20095;-64
2021/03/30 04:45:17;;;;;;;18.92;13.65;;;;;;;;;;5074996;28;20036;-64
2021/03/30 04:48:02;;;;;;;21.88;14.00;;;;;;;;;;5075643;28;20084;-64
2021/03/30 04:50:48;;;;;;;18.92;13.85;;;;;;;;;;5075427;28;20048;-64
2021/03/30 04:53:34;;;;;;;20.25;14.70;;;;;;;;;;5074994;28;20044;-64
2021/03/30 04:56:19;;;;;;;21.67;14.23;;;;;;;;;;5075155;28;20048;-64
2021/03/30 04:59:05;;;;;;;22.67;13.95;;;;;;;;;;5075080;28;20040;-64
2021/03/30 05:01:50;;;;;;;16.77;13.10;;;;;;;;;;5074911;28;20044;-63
2021/03/30 05:04:35;;;;;;;24.20;14.00;;;;;;;;;;5054750;28;20053;-64
2021/03/30 05:07:20;;;;;;;22.65;13.18;;;;;;;;;;5055170;28;20049;-64
2021/03/30 05:10:06;;;;;;;22.02;13.43;;;;;;;;;;5054985;28;20052;-64
2021/03/30 05:12:52;;;;;;;19.20;13.48;;;;;;;;;;5060615;28;20037;-63
2021/03/30 05:15:37;;;;;;;22.30;14.23;;;;;;;;;;5074607;28;20501;-64
2021/03/30 05:18:22;;;;;;;20.77;14.10;;;;;;;;;;5076385;28;20499;-64
2021/03/30 05:21:08;;;;;;;19.77;15.07;;;;;;;;;;5078722;28;20067;-65
2021/03/30 05:23:53;;;;;;;19.83;13.65;;;;;;;;;;5078516;28;20048;-65
2021/03/30 05:26:38;;;;;;;20.67;14.57;;;;;;;;;;5063198;28;20041;-63
2021/03/30 05:29:24;;;;;;;23.27;13.88;;;;;;;;;;5078290;28;20135;-65
2021/03/30 05:32:13;;;;;;;15.68;12.48;;;;;;;;;;5077901;28;20048;-65
2021/03/30 05:34:58;;;;;;;19.73;12.90;;;;;;;;;;5077973;28;20133;-63
2021/03/30 05:37:44;;;;;;;17.67;13.10;;;;;;;;;;5077274;28;20037;-65
2021/03/30 05:40:29;;;;;;;18.85;12.90;;;;;;;;;;5075596;28;20041;-64
2021/03/30 05:43:15;;;;;;;21.27;13.15;;;;;;;;;;5077514;28;20040;-64
2021/03/30 05:46:01;;;;;;;25.25;13.77;;;;;;;;;;5073587;28;20052;-65
2021/03/30 05:48:47;;;;;;;17.67;13.23;;;;;;;;;;5062748;28;20116;-65
2021/03/30 05:51:33;;;;;;;21.08;13.40;;;;;;;;;;5076800;28;20052;-65
2021/03/30 05:54:18;;;;;;;20.85;13.15;;;;;;;;;;5063758;28;20048;-66
2021/03/30 05:57:04;;;;;;;18.38;13.30;;;;;;;;;;5062983;28;20396;-65
2021/03/30 05:59:51;;;;;;;19.73;14.27;;;;;;;;;;5074735;28;20115;-64
2021/03/30 06:02:40;;;;;;;19.75;13.65;;;;;;;;;;5097853;28;20064;-65
2021/03/30 06:05:25;;;;;;;22.30;13.70;;;;;;;;;;5097331;28;20036;-65
2021/03/30 06:08:10;;;;;;;20.95;14.85;;;;;;;;;;5088768;28;20510;-65
2021/03/30 06:10:57;;;;;;;22.25;13.95;;;;;;;;;;5077143;28;20110;-65
2021/03/30 06:13:51;;;;;;;17.88;14.38;;;;;;;;;;5077295;28;20487;-64
2021/03/30 06:16:39;;;;;;;18.50;13.65;;;;;;;;;;5077333;28;20040;-65
2021/03/30 06:19:24;;;;;;;16.38;12.13;;;;;;;;;;5076624;28;20568;-64
2021/03/30 06:22:09;;;;;;;24.55;14.77;;;;;;;;;;5076536;28;20083;-65
2021/03/30 06:24:55;;;;;;;22.52;16.65;;;;;;;;;;5060783;28;20045;-65
2021/03/30 06:27:40;;;;;;;20.40;12.38;;;;;;;;;;5075815;28;20058;-65
2021/03/30 06:30:29;;;;;;;19.08;12.13;;;;;;;;;;5045921;28;20044;-65
2021/03/30 06:33:19;;;;;;;18.50;10.40;;;;;;;;;;5075439;28;20041;-64
2021/03/30 06:36:14;;;;;;;15.38;9.88;;;;;;;;;;5046791;28;20041;-63
2021/03/30 06:39:02;;;;;;;15.20;10.60;;;;;;;;;;5075111;28;20037;-65
2021/03/30 06:41:55;;;;;;;17.73;9.98;;;;;;;;;;5076225;28;20037;-65
2021/03/30 06:44:41;;;;;;;18.30;10.00;;;;;;;;;;5074123;28;20477;-65
2021/03/30 06:47:26;;;;;;;18.63;10.73;;;;;;;;;;5075178;28;20044;-65
2021/03/30 06:50:22;;;;;;;16.70;9.98;;;;;;;;;;5075532;28;20048;-66
2021/03/30 06:53:11;;;;;;;18.40;11.95;;;;;;;;;;5074973;28;20076;-65
2021/03/30 06:55:56;;;;;;;18.17;11.23;;;;;;;;;;5074601;28;20118;-65
2021/03/30 06:58:57;;;;;;;15.75;10.45;;;;;;;;;;5059925;28;20497;-65
2021/03/30 07:01:43;;;;;;;19.42;10.23;;;;;;;;;;5074749;28;20053;-64
2021/03/30 07:04:28;;;;;;;16.23;10.70;;;;;;;;;;5077291;22;20045;-64
2021/03/30 07:07:14;;;;;;;17.77;11.00;;;;;;;;;;5052953;28;20045;-64
2021/03/30 07:09:59;;;;;;;16.27;10.25;;;;;;;;;;5029765;28;20132;-64
2021/03/30 07:12:47;;;;;;;15.60;11.25;;;;;;;;;;5057952;28;20127;-64
2021/03/30 07:15:32;;;;;;;13.48;9.73;;;;;;;;;;5036092;28;20041;-64
2021/03/30 07:18:35;;;;;;;19.00;10.13;;;;;;;;;;5049347;28;20060;-64
2021/03/30 07:21:24;;;;;;;29.92;10.45;;;;;;;;;;5049872;28;20037;-64
2021/03/30 07:24:11;;;;;;;14.88;9.35;;;;;;;;;;5052269;28;20044;-64
2021/03/30 07:27:03;;;;;;;19.05;10.45;;;;;;;;;;5052575;28;20049;-64
2021/03/30 07:29:48;;;;;;;15.27;9.55;;;;;;;;;;5051691;28;20487;-64
2021/03/30 07:32:43;;;;;;;15.43;9.75;;;;;;;;;;5044623;28;20049;-64
2021/03/30 07:35:29;;;;;;;16.35;10.45;;;;;;;;;;5048828;28;20053;-64
2021/03/30 07:38:18;;;;;;;17.27;10.73;;;;;;;;;;5052047;28;20384;-64
2021/03/30 07:41:03;;;;;;;18.67;10.23;;;;;;;;;;5039657;28;20099;-64
2021/03/30 07:43:49;;;;;;;16.50;9.48;;;;;;;;;;5031271;28;20045;-64
2021/03/30 07:46:34;;;;;;;17.98;10.68;;;;;;;;;;5033474;28;20128;-64
2021/03/30 07:49:23;;;;;;;20.30;9.30;;;;;;;;;;5012294;28;20046;-64
2021/03/30 07:52:21;;;;;;;14.13;8.55;;;;;;;;;;5030702;28;20049;-64
2021/03/30 07:55:18;;;;;;;14.23;9.10;;;;;;;;;;5027431;28;20049;-64
2021/03/30 07:58:08;;;;;;;14.38;9.27;;;;;;;;;;5023084;28;20533;-64
2021/03/30 08:00:53;;;;;;;16.02;8.95;;;;;;;;;;5027964;28;20126;-65
2021/03/30 08:03:38;;;;;;;13.90;9.02;;;;;;;;;;5011796;28;20038;-65
2021/03/30 08:06:31;;;;;;;15.75;9.35;;;;;;;;;;5022220;28;21102;-64
2021/03/30 08:09:19;;;;;;;12.35;8.10;;;;;;;;;;5044201;28;20058;-64
2021/03/30 08:12:06;;;;;;;15.73;8.15;;;;;;;;;;5031859;28;20049;-63
2021/03/30 08:14:52;;;;;;;13.60;8.60;;;;;;;;;;5009841;28;20193;-64
2021/03/30 08:17:37;;;;;;;15.13;8.43;;;;;;;;;;5023665;28;20140;-64
2021/03/30 08:20:25;;;;;;;15.15;8.23;;;;;;;;;;5023872;28;20041;-64
2021/03/30 08:23:11;;;;;;;15.23;8.77;;;;;;;;;;5007593;28;20407;-64
2021/03/30 08:26:15;;;;;;;16.38;8.52;;;;;;;;;;5022796;28;20053;-64
2021/03/30 08:29:13;;;;;;;14.13;8.23;;;;;;;;;;5033889;28;20471;-63
2021/03/30 08:31:59;;;;;;;18.67;9.05;;;;;;;;;;5022917;28;20491;-63
2021/03/30 08:34:44;;;;;;;13.57;8.48;;;;;;;;;;5016842;28;20049;-63
2021/03/30 08:37:39;;;;;;;12.73;8.27;;;;;;;;;;5047752;28;20110;-64
2021/03/30 08:40:36;;;;;;;12.65;9.15;;;;;;;;;;5051618;28;20041;-64
2021/03/30 08:43:22;;;;;;;19.15;9.45;;;;;;;;;;5051500;28;20483;-64
2021/03/30 08:46:13;;;;;;;13.25;8.40;;;;;;;;;;5047912;28;20402;-63
2021/03/30 08:48:59;;;;;;;12.80;8.05;;;;;;;;;;5035181;28;20508;-63
2021/03/30 08:51:44;;;;;;;12.10;7.65;;;;;;;;;;5016062;28;20120;-64
2021/03/30 08:54:30;;;;;;;15.32;7.93;;;;;;;;;;5031251;28;20049;-64
2021/03/30 08:57:20;;;;;;;12.63;8.25;;;;;;;;;;5048370;28;20049;-64
2021/03/30 09:00:09;;;;;;;13.15;7.22;;;;;;;;;;5037344;28;20136;-63
2021/03/30 09:03:09;;;;;;;14.48;8.70;;;;;;;;;;5031497;28;20041;-63
2021/03/30 09:05:54;;;;;;;13.88;8.77;;;;;;;;;;5018009;28;20053;-64
2021/03/30 09:08:40;;;;;;;15.95;8.20;;;;;;;;;;5031963;28;20050;-64
2021/03/30 09:11:27;;;;;;;12.85;7.38;;;;;;;;;;5025050;28;20064;-64
2021/03/30 09:14:14;;;;;;;12.07;8.30;;;;;;;;;;5043715;28;20521;-63
2021/03/30 09:17:09;;;;;;;11.93;9.10;;;;;;;;;;5039443;28;20132;-63
2021/03/30 09:19:54;;;;;;;12.35;8.43;;;;;;;;;;5054654;28;20049;-64
2021/03/30 09:22:44;;;;;;;12.32;8.13;;;;;;;;;;5054729;28;20099;-64
2021/03/30 09:25:39;;;;;;;12.90;7.28;;;;;;;;;;5014960;28;20062;-64
2021/03/30 09:28:25;;;;;;;14.30;8.05;;;;;;;;;;5050878;28;20060;-64
2021/03/30 09:31:11;;;;;;;12.45;6.40;;;;;;;;;;5038492;28;20120;-64
2021/03/30 09:34:00;;;;;;;12.85;6.88;;;;;;;;;;5033045;28;20048;-64
2021/03/30 09:36:47;;;;;;;13.90;5.80;;;;;;;;;;5054542;28;20052;-64
2021/03/30 09:39:34;;;;;;;15.18;7.43;;;;;;;;;;5014781;28;20037;-64
2021/03/30 09:42:19;;;;;;;10.23;6.25;;;;;;;;;;5035451;28;20105;-64
2021/03/30 09:45:05;;;;;;;13.25;7.25;;;;;;;;;;5034810;28;20399;-64
2021/03/30 09:47:50;;;;;;;11.27;7.20;;;;;;;;;;5038572;28;20116;-64
2021/03/30 09:50:35;;;;;;;10.70;7.18;;;;;;;;;;5036296;28;20049;-64
2021/03/30 09:53:21;;;;;;;17.23;7.75;;;;;;;;;;5054066;28;20049;-64
2021/03/30 09:56:06;;;;;;;15.68;7.03;;;;;;;;;;5053857;28;20430;-64
2021/03/30 09:58:57;;;;;;;11.95;6.40;;;;;;;;;;5054134;28;20044;-64
2021/03/30 10:01:42;;;;;;;9.32;6.97;;;;;;;;;;5044455;28;20041;-64
2021/03/30 10:04:28;;;;;;;12.13;6.93;;;;;;;;;;5033649;28;20077;-64
2021/03/30 10:07:23;;;;;;;12.50;6.05;;;;;;;;;;5054175;28;20090;-64
2021/03/30 10:10:09;;;;;;;11.65;6.05;;;;;;;;;;5053845;28;20049;-64
2021/03/30 10:13:00;;;;;;;14.55;7.05;;;;;;;;;;5038371;28;20049;-64
2021/03/30 10:15:46;;;;;;;10.57;6.88;;;;;;;;;;5033664;28;20049;-64
2021/03/30 10:18:31;;;;;;;14.40;6.15;;;;;;;;;;5018714;28;20407;-64
2021/03/30 10:21:18;;;;;;;11.13;6.22;;;;;;;;;;5019120;28;20045;-64
2021/03/30 10:24:15;;;;;;;15.13;6.65;;;;;;;;;;5013997;28;20050;-64
2021/03/30 10:27:03;;;;;;;11.60;6.22;;;;;;;;;;5013843;28;20663;-64
2021/03/30 10:29:49;;;;;;;11.18;6.88;;;;;;;;;;5014043;28;20128;-65
2021/03/30 10:32:48;;;;;;;14.88;6.40;;;;;;;;;;5025081;28;20077;-65
2021/03/30 10:35:34;;;;;;;13.02;6.80;;;;;;;;;;5042989;28;20513;-65
2021/03/30 10:38:19;;;;;;;13.80;6.50;;;;;;;;;;5019145;28;20502;-64
2021/03/30 10:41:05;;;;;;;10.35;5.60;;;;;;;;;;5053389;28;20041;-65
2021/03/30 10:43:58;;;;;;;8.05;5.72;;;;;;;;;;5051613;28;20045;-65
2021/03/30 10:46:43;;;;;;;14.43;7.20;;;;;;;;;;5053137;28;20037;-65
2021/03/30 10:49:28;;;;;;;13.40;5.78;;;;;;;;;;5053226;28;20049;-65
2021/03/30 10:52:19;;;;;;;9.35;5.97;;;;;;;;;;5053263;28;20073;-65
2021/03/30 10:55:06;;;;;;;10.52;6.35;;;;;;;;;;5016901;28;20053;-65
2021/03/30 10:57:52;;;;;;;10.60;5.80;;;;;;;;;;5033157;28;20053;-64
2021/03/30 11:00:38;;;;;;;9.90;5.80;;;;;;;;;;5033169;28;20049;-64
2021/03/30 11:03:23;;;;;;;12.43;5.68;;;;;;;;;;5036320;28;20049;-65
2021/03/30 11:06:08;;;;;;;10.27;5.45;;;;;;;;;;5052487;28;20044;-64
2021/03/30 11:08:54;;;;;;;9.05;5.32;;;;;;;;;;5052764;28;20487;-65
2021/03/30 11:11:40;;;;;;;11.60;5.50;;;;;;;;;;5052882;28;20057;-65
2021/03/30 11:14:25;;;;;;;10.88;5.80;;;;;;;;;;5051550;28;20119;-65
2021/03/30 11:17:11;;;;;;;11.00;5.30;;;;;;;;;;5049200;28;20079;-65
2021/03/30 11:19:56;;;;;;;8.48;4.28;;;;;;;;;;5052585;28;20048;-65
2021/03/30 11:22:43;;;;;;;6.47;4.95;;;;;;;;;;5052578;28;20037;-65
2021/03/30 11:25:29;;;;;;;11.15;5.50;;;;;;;;;;5048183;28;20057;-65
2021/03/30 11:28:14;;;;;;;8.95;4.80;;;;;;;;;;5028122;28;20045;-64
2021/03/30 11:31:04;;;;;;;9.20;4.65;;;;;;;;;;5024015;28;20170;-65
2021/03/30 11:33:54;;;;;;;8.18;5.03;;;;;;;;;;5027949;28;20049;-65
2021/03/30 11:36:41;;;;;;;27.08;6.28;;;;;;;;;;5023733;28;20045;-65
2021/03/30 11:39:26;;;;;;;22.95;5.72;;;;;;;;;;5024938;28;20611;-65
2021/03/30 11:42:12;;;;;;;11.02;3.70;;;;;;;;;;5028240;28;20446;-65
2021/03/30 11:44:57;;;;;;;7.78;4.60;;;;;;;;;;5038529;28;20128;-65
2021/03/30 11:47:43;;;;;;;6.80;4.10;;;;;;;;;;5042445;28;20040;-65
2021/03/30 11:50:31;;;;;;;10.50;4.68;;;;;;;;;;5037168;28;20057;-65
2021/03/30 11:53:16;;;;;;;19.40;14.30;;;;;;;;;;5034562;28;20487;-65
2021/03/30 11:56:01;;;;;;;8.60;5.30;;;;;;;;;;5046390;28;20131;-65
2021/03/30 11:58:47;;;;;;;6.53;4.03;;;;;;;;;;5051369;28;20045;-65
2021/03/30 12:01:32;;;;;;;5.85;3.70;;;;;;;;;;5050118;28;20073;-65
2021/03/30 12:04:17;;;;;;;9.45;4.30;;;;;;;;;;5034948;28;20055;-66
2021/03/30 12:07:02;;;;;;;7.50;4.43;;;;;;;;;;5026774;28;20057;-65
2021/03/30 12:09:48;;;;;;;7.25;4.95;;;;;;;;;;5039343;28;20054;-65
2021/03/30 12:12:33;;;;;;;8.68;4.00;;;;;;;;;;5047106;28;20041;-65
2021/03/30 12:15:19;;;;;;;7.35;3.70;;;;;;;;;;5024774;28;20045;-66
2021/03/30 12:18:04;;;;;;;22.38;5.57;;;;;;;;;;5024078;28;20037;-65
2021/03/30 12:20:50;;;;;;;8.27;3.55;;;;;;;;;;5027467;28;20104;-65
2021/03/30 12:23:35;;;;;;;5.88;3.30;;;;;;;;;;5033085;28;20050;-65
2021/03/30 12:26:20;;;;;;;8.13;3.28;;;;;;;;;;5031066;28;20049;-65
2021/03/30 12:29:06;;;;;;;5.63;3.22;;;;;;;;;;5048188;28;20048;-65
2021/03/30 12:31:51;;;;;;;4.95;3.45;;;;;;;;;;5030176;28;20191;-65
2021/03/30 12:34:37;;;;;;;7.70;3.00;;;;;;;;;;5049289;28;20064;-66
2021/03/30 12:37:22;;;;;;;5.43;3.15;;;;;;;;;;5051537;28;20073;-66
2021/03/30 12:40:08;;;;;;;6.50;3.00;;;;;;;;;;5029333;28;20042;-66
2021/03/30 12:42:53;;;;;;;5.80;3.33;;;;;;;;;;5035712;28;20091;-66
2021/03/30 12:45:38;;;;;;;5.95;3.22;;;;;;;;;;5049273;28;20049;-66
2021/03/30 12:48:24;;;;;;;5.18;3.13;;;;;;;;;;5039441;28;20056;-65
2021/03/30 12:51:09;;;;;;;5.72;3.22;;;;;;;;;;5054992;28;20059;-65
2021/03/30 12:53:56;;;;;;;5.85;3.15;;;;;;;;;;5055308;28;20053;-65
2021/03/30 12:56:41;;;;;;;4.93;2.55;;;;;;;;;;5055055;28;20503;-65
2021/03/30 12:59:26;;;;;;;6.15;2.92;;;;;;;;;;5053569;28;20050;-65
2021/03/30 13:02:13;;;;;;;9.23;3.17;;;;;;;;;;5018721;28;20568;-65
2021/03/30 13:04:58;;;;;;;5.70;2.80;;;;;;;;;;5078175;22;20047;-65
2021/03/30 13:07:43;;;;;;;3.83;2.20;;;;;;;;;;5072674;28;20047;-65
2021/03/30 13:10:28;;;;;;;6.03;2.28;;;;;;;;;;5074398;28;20049;-65
2021/03/30 13:13:14;;;;;;;4.25;2.30;;;;;;;;;;5060231;28;20202;-64
2021/03/30 13:15:59;;;;;;;6.40;2.65;;;;;;;;;;5066069;28;20044;-64
2021/03/30 13:18:45;;;;;;;3.90;2.55;;;;;;;;;;5069396;28;20482;-64
2021/03/30 13:21:31;;;;;;;3.75;2.33;;;;;;;;;;5058286;28;20040;-65
2021/03/30 13:24:17;;;;;;;3.53;2.20;;;;;;;;;;5067815;28;20527;-64
2021/03/30 13:27:03;;;;;;;3.63;2.17;;;;;;;;;;5065102;28;20048;-65
2021/03/30 13:29:48;;;;;;;5.90;2.80;;;;;;;;;;5068321;28;20071;-65
2021/03/30 13:32:33;;;;;;;8.45;2.40;;;;;;;;;;5065221;28;20052;-65
2021/03/30 13:35:19;;;;;;;5.55;2.45;;;;;;;;;;5065734;28;20076;-65
2021/03/30 13:38:04;;;;;;;6.28;2.83;;;;;;;;;;5062288;28;20514;-64
2021/03/30 13:40:50;;;;;;;5.03;2.83;;;;;;;;;;5066107;28;20056;-64
2021/03/30 13:43:35;;;;;;;5.90;2.30;;;;;;;;;;5065557;28;20049;-64
2021/03/30 13:46:21;;;;;;;5.38;2.60;;;;;;;;;;5062828;28;20041;-64
2021/03/30 13:49:06;;;;;;;4.15;2.50;;;;;;;;;;5062302;28;20055;-64
2021/03/30 13:51:51;;;;;;;4.03;2.72;;;;;;;;;;5048121;28;20053;-64
2021/03/30 13:54:37;;;;;;;3.17;2.35;;;;;;;;;;5066620;28;20037;-64
2021/03/30 13:57:22;;;;;;;3.45;2.58;;;;;;;;;;5072378;28;20076;-64
2021/03/30 14:00:08;;;;;;;5.57;2.45;;;;;;;;;;5075685;28;20045;-64
2021/03/30 14:02:53;;;;;;;4.82;2.10;;;;;;;;;;5075182;28;20041;-64
2021/03/30 14:05:39;;;;;;;2.83;2.35;;;;;;;;;;5075888;28;20051;-64
2021/03/30 14:08:24;;;;;;;4.38;2.10;;;;;;;;;;5071467;28;20033;-64
2021/03/30 14:11:10;;;;;;;4.88;2.80;;;;;;;;;;5071369;28;20079;-64
2021/03/30 14:13:58;;;;;;;3.08;2.10;;;;;;;;;;5075026;28;20037;-64
2021/03/30 14:16:52;;;;;;;3.63;2.10;;;;;;;;;;5075408;28;20037;-64
2021/03/30 14:19:43;;;;;;;2.33;2.03;;;;;;;;;;5076149;28;20044;-64
2021/03/30 14:22:33;;;;;;;3.90;1.73;;;;;;;;;;5070823;28;20498;-64
2021/03/30 14:25:32;;;;;;;3.13;1.73;;;;;;;;;;5063373;28;20060;-64
2021/03/30 14:28:17;;;;;;;3.83;2.10;;;;;;;;;;5049556;28;20115;-64
2021/03/30 14:31:02;;;;;;;4.20;2.00;;;;;;;;;;5060953;28;20055;-64
2021/03/30 14:33:48;;;;;;;3.70;2.10;;;;;;;;;;5064325;28;20045;-65
2021/03/30 14:36:34;;;;;;;2.47;2.08;;;;;;;;;;5054178;28;20055;-65
2021/03/30 14:39:19;;;;;;;2.78;2.03;;;;;;;;;;5067040;28;20487;-65
2021/03/30 14:42:17;;;;;;;2.17;1.98;;;;;;;;;;5066240;28;20112;-65
2021/03/30 14:45:14;;;;;;;4.57;2.22;;;;;;;;;;5063798;28;20041;-65
2021/03/30 14:54:08;;;;;;;6.18;2.50;;;;;;;;;;5067076;28;20058;-65
2021/03/30 14:57:00;;;;;;;5.55;2.47;;;;;;;;;;5067115;28;20044;-65
2021/03/30 14:59:52;;;;;;;4.93;4.03;;;;;;;;;;5049376;28;20045;-65
2021/03/30 15:02:48;;;;;;;4.18;3.28;;;;;;;;;;5067736;28;20036;-65
2021/03/30 15:05:34;;;;;;;5.15;3.58;;;;;;;;;;5052154;28;20059;-65
2021/03/30 15:08:19;;;;;;;6.43;4.53;;;;;;;;;;5062818;28;20079;-65
2021/03/30 15:11:04;;;;;;;5.80;4.40;;;;;;;;;;5066079;28;20040;-65
2021/03/30 15:13:50;;;;;;;5.35;4.85;;;;;;;;;;5062293;28;20071;-64
2021/03/30 15:16:36;;;;;;;6.63;4.60;;;;;;;;;;5052557;28;20056;-64
2021/03/30 15:19:21;;;;;;;6.88;5.20;;;;;;;;;;5052761;28;20049;-65
2021/03/30 15:22:07;;;;;;;8.05;5.70;;;;;;;;;;5063835;28;20495;-65
2021/03/30 15:24:52;;;;;;;6.13;5.47;;;;;;;;;;5062129;28;20048;-65
2021/03/30 15:27:37;;;;;;;6.05;5.00;;;;;;;;;;5060334;28;20051;-65
2021/03/30 15:30:23;;;;;;;5.68;5.18;;;;;;;;;;5040203;28;20083;-64
2021/03/30 15:33:08;;;;;;;12.35;5.32;;;;;;;;;;5060599;28;20079;-64
2021/03/30 15:35:54;;;;;;;6.55;5.35;;;;;;;;;;5057095;28;20498;-64
2021/03/30 15:38:39;;;;;;;8.70;6.28;;;;;;;;;;5072282;28;20045;-64
2021/03/30 15:41:24;;;;;;;5.88;5.25;;;;;;;;;;5071100;28;20048;-64
2021/03/30 15:44:17;;;;;;;9.32;5.50;;;;;;;;;;5058841;28;20045;-64
2021/03/30 15:47:19;;;;;;;5.70;4.95;;;;;;;;;;5066537;28;20040;-64
2021/03/30 15:50:10;;;;;;;7.95;5.63;;;;;;;;;;5066055;28;20422;-64
2021/03/30 15:52:56;;;;;;;6.18;4.93;;;;;;;;;;5053036;28;20045;-64
2021/03/30 15:55:41;;;;;;;8.18;6.13;;;;;;;;;;5057456;28;20045;-64
2021/03/30 15:58:26;;;;;;;8.48;5.47;;;;;;;;;;5072062;28;20135;-64
2021/03/30 16:01:12;;;;;;;7.13;5.75;;;;;;;;;;5071901;28;20044;-64
2021/03/30 16:03:57;;;;;;;9.32;6.30;;;;;;;;;;5069924;28;20048;-64
2021/03/30 16:06:43;;;;;;;6.88;5.82;;;;;;;;;;5065334;28;20045;-64
2021/03/30 16:09:28;;;;;;;9.52;6.30;;;;;;;;;;5063826;28;20048;-64
2021/03/30 16:12:14;;;;;;;6.20;5.50;;;;;;;;;;5066766;28;20055;-64
2021/03/30 16:14:59;;;;;;;6.03;5.43;;;;;;;;;;5064059;28;20041;-64
2021/03/30 16:17:45;;;;;;;7.85;5.88;;;;;;;;;;5066736;28;20120;-64
2021/03/30 16:20:30;;;;;;;6.03;5.47;;;;;;;;;;5061184;28;20435;-65
2021/03/30 16:23:16;;;;;;;7.47;5.60;;;;;;;;;;5057691;28;20037;-65
2021/03/30 16:26:01;;;;;;;6.30;5.53;;;;;;;;;;5063205;28;20067;-65
2021/03/30 16:28:47;;;;;;;7.22;6.10;;;;;;;;;;5068047;28;20131;-65
2021/03/30 16:31:32;;;;;;;8.13;5.70;;;;;;;;;;5053779;28;20060;-65